Time;durP1;ratioP1;P1;durP2;ratioP2;P2;SDS_P1;SDS_P2;PMS_P1;PMS_P2;Temp;Humidity;BMP_temperature;BMP_pressure;BME280_temperature;BME280_humidity;BME280_pressure;Samples;Min_cycle;Max_cycle;Signal;HPM_P1;HPM_P2
2023/07/31 00:01:59;;;;;;;6.57;4.57;;;;;;;12.65;100.00;99711.81;7396502;19;20457;-43
2023/07/31 00:04:29;;;;;;;6.57;3.70;;;;;;;12.65;100.00;99714.41;7373461;19;20507;-44
2023/07/31 00:06:59;;;;;;;7.10;3.60;;;;;;;12.66;100.00;99704.06;7397138;19;20420;-44
2023/07/31 00:09:28;;;;;;;8.57;4.17;;;;;;;12.68;100.00;99698.94;7370402;19;20427;-41
2023/07/31 00:11:58;;;;;;;9.80;4.30;;;;;;;12.69;100.00;99703.25;7396247;19;20447;-42
2023/07/31 00:14:30;;;;;;;8.23;4.23;;;;;;;12.73;100.00;99694.72;7371175;19;20451;-42
2023/07/31 00:16:59;;;;;;;7.50;3.90;;;;;;;12.72;100.00;99685.19;7391426;19;20530;-44
2023/07/31 00:19:29;;;;;;;5.47;3.23;;;;;;;12.73;100.00;99930.22;7373447;19;20545;-42
2023/07/31 00:21:59;;;;;;;9.60;3.90;;;;;;;12.77;100.00;100246.94;7398195;19;20406;-41
2023/07/31 00:24:29;;;;;;;5.87;3.77;;;;;;;12.76;100.00;100240.88;7374110;19;20519;-42
2023/07/31 00:26:58;;;;;;;7.30;3.43;;;;;;;12.76;100.00;100216.72;7399399;19;20455;-41
2023/07/31 00:29:30;;;;;;;8.97;3.30;;;;;;;12.82;100.00;100209.97;7372292;19;21143;-43
2023/07/31 00:32:00;;;;;;;7.57;2.73;;;;;;;12.79;100.00;100198.66;7398166;19;20399;-42
2023/07/31 00:34:30;;;;;;;10.10;4.10;;;;;;;12.81;100.00;100189.22;7375767;19;21106;-44
2023/07/31 00:36:59;;;;;;;11.97;3.37;;;;;;;12.80;100.00;100172.81;7399018;19;20439;-43
2023/07/31 00:39:29;;;;;;;14.17;3.27;;;;;;;12.82;100.00;100149.56;7371994;19;20427;-43
2023/07/31 00:41:58;;;;;;;8.77;3.00;;;;;;;12.85;100.00;100143.56;7398441;19;20411;-41
2023/07/31 00:44:30;;;;;;;7.93;3.00;;;;;;;12.81;100.00;100124.50;7375429;19;21304;-44
2023/07/31 00:47:01;;;;;;;8.27;3.27;;;;;;;12.77;100.00;100113.19;7400192;19;20447;-43
2023/07/31 00:49:30;;;;;;;5.77;2.50;;;;;;;12.75;100.00;100103.66;7376004;19;20443;-42
2023/07/31 00:52:00;;;;;;;10.37;2.60;;;;;;;12.73;100.00;100076.88;7399979;19;20792;-43
2023/07/31 00:54:30;;;;;;;7.17;2.90;;;;;;;12.69;100.00;100037.09;7375084;19;20904;-45
2023/07/31 00:57:00;;;;;;;12.70;2.70;;;;;;;12.71;100.00;100016.44;7398205;19;20491;-41
2023/07/31 00:59:32;;;;;;;11.53;3.33;;;;;;;12.67;100.00;99999.97;7374373;19;20460;-44
2023/07/31 01:02:02;;;;;;;11.93;2.63;;;;;;;12.64;100.00;100000.78;7397563;19;20420;-43
2023/07/31 01:04:31;;;;;;;6.53;2.30;;;;;;;12.64;100.00;99984.38;7375663;19;20447;-42
2023/07/31 01:07:05;;;;;;;10.17;3.80;;;;;;;12.61;100.00;99966.22;7398076;19;20472;-41
2023/07/31 01:09:39;;;;;;;10.07;2.70;;;;;;;12.57;100.00;99949.75;7375588;19;20456;-43
2023/07/31 01:12:10;;;;;;;6.77;2.40;;;;;;;12.59;100.00;99919.59;7367796;19;20410;-43
2023/07/31 01:14:42;;;;;;;9.83;2.73;;;;;;;12.60;100.00;99848.03;7395445;19;20407;-45
2023/07/31 01:17:12;;;;;;;8.87;2.73;;;;;;;12.56;100.00;99811.72;7373870;19;20796;-43
2023/07/31 01:19:41;;;;;;;10.10;3.10;;;;;;;12.55;100.00;99771.19;7394836;19;21078;-44
2023/07/31 01:22:24;;;;;;;5.90;2.40;;;;;;;12.57;100.00;99760.88;7372377;19;20491;-44
2023/07/31 01:25:01;;;;;;;9.73;2.67;;;;;;;12.56;100.00;99759.09;7395184;19;20964;-45
2023/07/31 01:27:37;;;;;;;13.20;2.80;;;;;;;12.56;100.00;99759.97;7371125;19;20418;-45
2023/07/31 01:30:14;;;;;;;8.20;3.37;;;;;;;12.57;100.00;99766.03;7394288;19;20403;-45
2023/07/31 01:32:45;;;;;;;8.97;2.70;;;;;;;12.54;100.00;99779.78;7370565;19;20401;-43
2023/07/31 01:35:15;;;;;;;6.50;2.80;;;;;;;12.57;100.00;99776.38;7394550;19;20411;-44
2023/07/31 01:37:44;;;;;;;11.33;3.50;;;;;;;12.57;100.00;99786.75;7370019;19;20407;-43
2023/07/31 01:40:14;;;;;;;9.63;3.30;;;;;;;12.60;100.00;99798.84;7398102;19;20491;-44
2023/07/31 01:42:46;;;;;;;12.10;3.50;;;;;;;12.59;100.00;99815.19;7376877;19;20394;-44
2023/07/31 01:45:15;;;;;;;10.40;3.63;;;;;;;12.56;100.00;99840.19;7400096;19;20415;-43
2023/07/31 01:47:45;;;;;;;12.33;3.00;;;;;;;12.57;100.00;99848.84;7378578;19;20413;-44
2023/07/31 01:50:15;;;;;;;7.67;2.93;;;;;;;12.58;100.00;99891.09;7399753;19;20435;-44
2023/07/31 01:52:44;;;;;;;9.37;2.83;;;;;;;12.57;100.00;99923.88;7377424;19;20427;-43
2023/07/31 01:55:14;;;;;;;5.37;2.90;;;;;;;12.59;100.00;99954.94;7402703;19;20409;-41
2023/07/31 01:57:46;;;;;;;9.17;2.67;;;;;;;12.60;100.00;100009.31;7376741;19;20951;-41
2023/07/31 02:00:16;;;;;;;8.87;3.10;;;;;;;12.59;100.00;100068.78;7400419;19;20471;-43
2023/07/31 02:02:45;;;;;;;6.17;2.90;;;;;;;12.63;100.00;100124.97;7376443;19;20450;-41
2023/07/31 02:05:15;;;;;;;12.63;3.43;;;;;;;12.62;100.00;100167.22;7399427;19;20395;-43
2023/07/31 02:07:45;;;;;;;13.93;3.50;;;;;;;12.62;100.00;100193.09;7376949;19;20411;-44
2023/07/31 02:10:14;;;;;;;11.13;3.97;;;;;;;12.62;100.00;100200.84;7398449;19;20514;-44
2023/07/31 02:12:46;;;;;;;6.73;3.13;;;;;;;12.63;100.00;100226.78;7376064;19;20797;-43
2023/07/31 02:15:16;;;;;;;8.13;3.53;;;;;;;12.65;100.00;100224.19;7399032;19;20943;-44
2023/07/31 02:17:46;;;;;;;10.30;3.40;;;;;;;12.66;100.00;100224.25;7376256;19;20851;-44
2023/07/31 02:20:15;;;;;;;5.97;3.67;;;;;;;12.67;100.00;100230.31;7399074;19;20422;-42
2023/07/31 02:22:45;;;;;;;6.77;2.90;;;;;;;12.71;100.00;100221.75;7375348;19;20409;-43
2023/07/31 02:25:15;;;;;;;8.53;3.13;;;;;;;12.71;100.00;100224.34;7399309;19;20411;-42
2023/07/31 02:27:47;;;;;;;7.03;2.80;;;;;;;12.74;100.00;100226.13;7376916;19;20403;-44
2023/07/31 02:30:16;;;;;;;8.87;3.87;;;;;;;12.74;100.00;100227.03;7398142;19;20399;-42
2023/07/31 02:32:46;;;;;;;10.77;4.10;;;;;;;12.74;100.00;100216.69;7375385;19;20882;-43
2023/07/31 02:35:16;;;;;;;6.27;3.40;;;;;;;12.78;100.00;100215.91;7397573;19;20416;-45
2023/07/31 02:37:45;;;;;;;9.30;3.20;;;;;;;12.74;100.00;100219.25;7374949;19;20868;-44
2023/07/31 02:40:15;;;;;;;5.57;3.63;;;;;;;12.79;100.00;100211.59;7398010;19;20436;-43
2023/07/31 02:42:48;;;;;;;9.70;2.97;;;;;;;12.80;100.00;100214.22;7375352;19;20411;-41
2023/07/31 02:45:17;;;;;;;8.93;3.47;;;;;;;12.81;100.00;100210.81;7397478;19;20452;-42
2023/07/31 02:47:47;;;;;;;7.20;3.47;;;;;;;12.82;100.00;100212.56;7375713;19;20447;-43
2023/07/31 02:50:16;;;;;;;5.73;3.07;;;;;;;12.83;100.00;100209.13;7398050;19;20411;-42
2023/07/31 02:52:46;;;;;;;8.50;4.00;;;;;;;12.86;100.00;100207.47;7373122;19;20435;-42
2023/07/31 02:55:16;;;;;;;9.00;3.90;;;;;;;12.86;100.00;100204.88;7396597;19;20425;-43
2023/07/31 02:57:48;;;;;;;15.23;4.17;;;;;;;12.90;100.00;100193.72;7375175;19;20411;-42
2023/07/31 03:00:18;;;;;;;11.03;3.90;;;;;;;12.89;100.00;100207.50;7399190;19;20779;-45
2023/07/31 03:02:47;;;;;;;8.50;3.40;;;;;;;12.88;100.00;100211.84;7374021;19;20430;-44
2023/07/31 03:05:17;;;;;;;6.10;3.77;;;;;;;12.89;100.00;100202.34;7397059;19;20478;-43
2023/07/31 03:07:47;;;;;;;8.57;3.47;;;;;;;12.92;100.00;100199.84;7374702;19;20395;-44
2023/07/31 03:10:16;;;;;;;10.60;4.40;;;;;;;12.95;100.00;100202.47;7397643;19;20949;-43
2023/07/31 03:12:51;;;;;;;9.37;3.60;;;;;;;12.92;100.00;100197.25;7374770;19;20403;-44
2023/07/31 03:15:21;;;;;;;8.20;2.90;;;;;;;12.94;100.00;100191.28;7398264;19;20395;-44
2023/07/31 03:17:50;;;;;;;7.13;3.27;;;;;;;12.92;100.00;100192.94;7374754;19;20403;-43
2023/07/31 03:20:20;;;;;;;8.17;3.67;;;;;;;12.97;100.00;100187.84;7399817;19;20955;-46
2023/07/31 03:22:49;;;;;;;7.03;3.20;;;;;;;12.94;100.00;100203.31;7373527;19;20403;-44
2023/07/31 03:25:19;;;;;;;9.10;3.90;;;;;;;12.95;100.00;100187.84;7397631;19;20400;-43
2023/07/31 03:27:51;;;;;;;8.40;3.93;;;;;;;12.95;100.00;100181.78;7374727;19;20848;-44
2023/07/31 03:30:21;;;;;;;7.53;3.13;;;;;;;12.96;100.00;100173.16;7398236;19;20407;-43
2023/07/31 03:32:51;;;;;;;7.17;3.70;;;;;;;12.96;100.00;100171.44;7373758;19;20577;-44
2023/07/31 03:35:20;;;;;;;8.10;3.80;;;;;;;12.99;100.00;100183.59;7397585;19;20497;-43
2023/07/31 03:37:50;;;;;;;9.10;3.03;;;;;;;13.01;100.00;100181.03;7374139;19;20422;-43
2023/07/31 03:40:20;;;;;;;13.77;3.57;;;;;;;12.98;100.00;100181.84;7396256;19;20474;-44
2023/07/31 03:42:52;;;;;;;7.00;3.70;;;;;;;13.02;100.00;100175.88;7373004;19;20752;-42
2023/07/31 03:45:22;;;;;;;6.47;3.80;;;;;;;13.00;100.00;100177.56;7396584;19;20408;-44
2023/07/31 03:47:51;;;;;;;9.90;4.10;;;;;;;13.04;100.00;100181.09;7374554;19;20413;-43
2023/07/31 03:50:21;;;;;;;7.37;3.40;;;;;;;13.07;100.00;100186.34;7396489;19;20424;-43
2023/07/31 03:52:51;;;;;;;7.13;3.83;;;;;;;13.09;100.00;100180.34;7372490;19;20416;-45
2023/07/31 03:55:21;;;;;;;11.37;3.83;;;;;;;13.09;100.00;100185.53;7397344;19;20471;-43
2023/07/31 03:57:53;;;;;;;8.10;3.40;;;;;;;13.07;100.00;100179.47;7372901;19;20431;-45
2023/07/31 04:00:23;;;;;;;7.00;3.20;;;;;;;13.14;100.00;100179.59;7397659;19;20414;-42
2023/07/31 04:02:53;;;;;;;8.40;3.60;;;;;;;13.15;100.00;100179.63;7370122;19;21290;-45
2023/07/31 04:05:22;;;;;;;12.93;3.97;;;;;;;13.18;100.00;100190.03;7395721;19;20407;-43
2023/07/31 04:07:52;;;;;;;6.77;3.33;;;;;;;13.12;100.00;100173.50;7372696;19;20407;-44
2023/07/31 04:10:22;;;;;;;6.27;3.00;;;;;;;13.18;100.00;100165.88;7398282;19;20421;-43
2023/07/31 04:12:54;;;;;;;6.80;3.37;;;;;;;13.21;100.00;100164.22;7372177;19;20395;-43
2023/07/31 04:15:24;;;;;;;10.40;3.70;;;;;;;13.22;100.00;100171.16;7398599;19;20410;-47
2023/07/31 04:17:54;;;;;;;5.03;2.97;;;;;;;13.21;100.00;100163.34;7371740;19;20470;-45
2023/07/31 04:20:23;;;;;;;6.27;3.30;;;;;;;13.24;100.00;100173.78;7396178;19;20407;-44
2023/07/31 04:22:53;;;;;;;6.10;3.70;;;;;;;13.22;100.00;100171.16;7372832;19;20757;-43
2023/07/31 04:25:23;;;;;;;8.50;3.73;;;;;;;13.26;100.00;100164.31;7395272;19;20395;-45
2023/07/31 04:27:55;;;;;;;5.33;3.20;;;;;;;13.25;100.00;100167.75;7371557;19;20410;-43
2023/07/31 04:30:24;;;;;;;7.27;3.53;;;;;;;13.29;100.00;100169.59;7397900;19;20426;-43
2023/07/31 04:32:54;;;;;;;6.53;3.63;;;;;;;13.29;100.00;100156.63;7369634;19;20925;-41
2023/07/31 04:35:23;;;;;;;8.77;3.60;;;;;;;13.31;100.00;100164.41;7391907;19;20406;-42
2023/07/31 04:37:53;;;;;;;8.53;4.30;;;;;;;13.33;100.00;100168.78;7367818;19;20498;-44
2023/07/31 04:40:23;;;;;;;6.27;3.67;;;;;;;13.35;100.00;100181.78;7393093;19;20437;-41
2023/07/31 04:42:55;;;;;;;4.43;2.90;;;;;;;13.37;100.00;100169.72;7368449;19;20482;-47
2023/07/31 04:45:25;;;;;;;5.87;3.40;;;;;;;13.36;100.00;100179.22;7393362;19;20411;-44
2023/07/31 04:47:54;;;;;;;7.57;3.03;;;;;;;13.37;100.00;100170.59;7369921;19;20406;-46
2023/07/31 04:50:24;;;;;;;7.40;4.10;;;;;;;13.40;100.00;100179.28;7395024;19;20942;-45
2023/07/31 04:52:53;;;;;;;6.57;3.57;;;;;;;13.44;100.00;100186.28;7371828;19;20431;-45
2023/07/31 04:55:23;;;;;;;7.90;2.97;;;;;;;13.38;100.00;100179.22;7394583;19;20410;-42
2023/07/31 04:57:55;;;;;;;5.40;3.30;;;;;;;13.36;100.00;100168.88;7371327;19;20479;-43
2023/07/31 05:00:25;;;;;;;5.27;2.83;;;;;;;13.40;100.00;100161.13;7393708;19;20406;-42
2023/07/31 05:02:54;;;;;;;6.17;3.07;;;;;;;13.44;100.00;100161.22;7370966;19;20428;-45
2023/07/31 05:05:24;;;;;;;4.70;3.30;;;;;;;13.43;100.00;100169.00;7395436;19;20842;-41
2023/07/31 05:07:54;;;;;;;5.27;2.97;;;;;;;13.44;100.00;100155.19;7371612;19;20474;-44
2023/07/31 05:10:24;;;;;;;4.67;2.77;;;;;;;13.47;100.00;100166.53;7395751;19;20439;-44
2023/07/31 05:12:56;;;;;;;7.67;2.97;;;;;;;13.49;100.00;100169.16;7371203;19;20423;-44
2023/07/31 05:15:25;;;;;;;3.67;2.47;;;;;;;13.48;100.00;100169.97;7394389;19;20396;-44
2023/07/31 05:17:55;;;;;;;3.13;2.53;;;;;;;13.49;100.00;100163.97;7370703;19;20423;-44
2023/07/31 05:20:25;;;;;;;4.03;2.50;;;;;;;13.47;100.00;100160.44;7394243;19;20967;-44
2023/07/31 05:22:54;;;;;;;4.13;2.33;;;;;;;13.51;100.00;100162.28;7371154;19;20395;-45
2023/07/31 05:25:24;;;;;;;2.80;2.50;;;;;;;13.47;100.00;100160.44;7395684;19;20420;-48
2023/07/31 05:27:56;;;;;;;5.43;2.47;;;;;;;13.50;100.00;100160.53;7371570;19;20399;-43
2023/07/31 05:30:26;;;;;;;4.47;2.57;;;;;;;13.52;100.00;100158.84;7394756;19;20950;-46
2023/07/31 05:32:55;;;;;;;3.77;2.77;;;;;;;13.45;100.00;100155.22;7370559;19;20423;-43
2023/07/31 05:35:25;;;;;;;4.53;2.97;;;;;;;13.47;100.00;100158.75;7394820;19;20403;-47
2023/07/31 05:37:55;;;;;;;6.30;2.63;;;;;;;13.49;100.00;100161.38;7370439;19;20406;-46
2023/07/31 05:40:24;;;;;;;3.60;2.90;;;;;;;13.50;100.00;100145.84;7393742;19;20432;-44
2023/07/31 05:42:56;;;;;;;2.97;2.50;;;;;;;13.47;100.00;100142.31;7369883;19;21008;-44
2023/07/31 05:45:27;;;;;;;5.50;3.00;;;;;;;13.49;100.00;100140.66;7394589;19;20478;-42
2023/07/31 05:47:57;;;;;;;4.50;3.00;;;;;;;13.50;100.00;100145.84;7370028;19;20478;-45
2023/07/31 05:50:26;;;;;;;3.30;2.80;;;;;;;13.50;100.00;100143.25;7393744;19;20400;-50
2023/07/31 05:52:56;;;;;;;3.10;2.50;;;;;;;13.50;100.00;100140.66;7367480;19;20399;-45
2023/07/31 05:55:26;;;;;;;2.60;2.20;;;;;;;13.51;100.00;100131.19;7393171;19;20479;-45
2023/07/31 05:57:58;;;;;;;2.50;2.13;;;;;;;13.49;100.00;100128.53;7370417;19;20947;-43
2023/07/31 06:00:30;;;;;;;4.37;2.23;;;;;;;13.54;100.00;100126.03;7392704;19;20428;-45
2023/07/31 06:02:59;;;;;;;3.40;2.30;;;;;;;13.52;100.00;100122.56;7367625;19;21045;-46
2023/07/31 06:05:29;;;;;;;8.13;2.67;;;;;;;13.57;100.00;100110.56;7392525;19;20411;-45
2023/07/31 06:07:59;;;;;;;2.93;2.50;;;;;;;13.60;100.00;100114.94;7369201;19;20483;-44
2023/07/31 06:10:29;;;;;;;2.23;1.97;;;;;;;13.59;100.00;100100.22;7392172;19;20773;-47
2023/07/31 06:13:01;;;;;;;3.40;2.50;;;;;;;13.55;100.00;100104.47;7367149;19;20494;-43
2023/07/31 06:15:31;;;;;;;3.30;2.53;;;;;;;13.52;100.00;100100.97;7391408;19;20424;-44
2023/07/31 06:18:01;;;;;;;5.10;2.67;;;;;;;13.61;100.00;100102.00;7366911;19;20514;-44
2023/07/31 06:20:31;;;;;;;3.37;2.53;;;;;;;13.64;100.00;100117.59;7386976;19;20437;-45
2023/07/31 06:23:01;;;;;;;5.37;2.43;;;;;;;13.57;100.00;100114.84;7363928;19;20403;-42
2023/07/31 06:25:30;;;;;;;2.70;2.50;;;;;;;13.68;100.00;100123.72;7388101;19;20391;-43
2023/07/31 06:28:03;;;;;;;3.13;2.13;;;;;;;13.67;100.00;100129.75;7370872;19;20403;-43
2023/07/31 06:30:32;;;;;;;3.20;2.60;;;;;;;13.66;100.00;100121.94;7394768;19;20402;-47
2023/07/31 06:33:02;;;;;;;3.20;1.97;;;;;;;13.68;100.00;100125.44;7371388;19;20403;-43
2023/07/31 06:35:32;;;;;;;3.73;2.27;;;;;;;13.73;100.00;100128.97;7395089;19;20428;-41
2023/07/31 06:38:02;;;;;;;2.83;2.20;;;;;;;13.70;100.00;100137.56;7370495;19;20430;-43
2023/07/31 06:40:32;;;;;;;2.77;2.47;;;;;;;13.68;100.00;100125.44;7393941;19;20415;-42
2023/07/31 06:43:07;;;;;;;2.90;2.33;;;;;;;13.70;100.00;100118.56;7371627;19;20458;-43
2023/07/31 06:45:37;;;;;;;3.03;2.70;;;;;;;13.72;100.00;100120.34;7394528;19;20411;-44
2023/07/31 06:48:07;;;;;;;3.60;2.53;;;;;;;13.69;100.00;100112.50;7372277;19;20445;-44
2023/07/31 06:50:37;;;;;;;4.47;2.67;;;;;;;13.75;100.00;100120.38;7396632;19;21092;-43
2023/07/31 06:53:07;;;;;;;3.90;2.30;;;;;;;13.69;100.00;100117.69;7370441;19;20985;-43
2023/07/31 06:55:37;;;;;;;3.13;2.50;;;;;;;13.74;100.00;100112.59;7394247;19;20403;-46
2023/07/31 06:58:09;;;;;;;4.23;2.43;;;;;;;13.79;100.00;100108.34;7370707;19;20817;-44
2023/07/31 07:00:38;;;;;;;3.10;2.50;;;;;;;13.80;100.00;100111.84;7393387;19;20414;-43
2023/07/31 07:03:08;;;;;;;3.57;2.80;;;;;;;13.79;100.00;100116.13;7370044;19;20415;-42
2023/07/31 07:05:38;;;;;;;3.73;2.80;;;;;;;13.81;100.00;100118.75;7394026;19;20422;-44
2023/07/31 07:08:07;;;;;;;3.80;2.37;;;;;;;13.76;100.00;100101.38;7370966;19;20422;-44
2023/07/31 07:10:37;;;;;;;2.80;2.50;;;;;;;13.80;100.00;100107.53;7396281;19;20407;-44
2023/07/31 07:13:09;;;;;;;5.70;3.60;;;;;;;13.84;100.00;100116.25;7369745;19;20407;-45
2023/07/31 07:15:38;;;;;;;4.37;3.17;;;;;;;13.86;100.00;100110.25;7392644;19;20414;-43
2023/07/31 07:18:10;;;;;;;4.80;2.90;;;;;;;13.84;100.00;100104.13;7368405;19;20429;-42
2023/07/31 07:20:40;;;;;;;2.97;2.50;;;;;;;13.84;100.00;100098.09;7391014;19;20440;-42
2023/07/31 07:23:09;;;;;;;6.23;3.60;;;;;;;13.86;100.00;100104.16;7369835;19;20490;-47
2023/07/31 07:25:41;;;;;;;11.10;6.67;;;;;;;13.87;100.00;100099.00;7394674;19;20415;-44
2023/07/31 07:28:13;;;;;;;8.90;5.63;;;;;;;13.84;100.00;100101.53;7369522;19;20407;-43
2023/07/31 07:30:43;;;;;;;7.17;5.13;;;;;;;13.86;100.00;100097.28;7393507;19;20751;-43
2023/07/31 07:33:12;;;;;;;8.10;5.40;;;;;;;13.88;100.00;100090.38;7370043;19;21013;-45
2023/07/31 07:35:42;;;;;;;6.50;4.53;;;;;;;13.89;100.00;100086.94;7392374;19;20490;-43
2023/07/31 07:38:11;;;;;;;5.67;3.63;;;;;;;13.89;100.00;100084.34;7369868;19;20438;-44
2023/07/31 07:40:41;;;;;;;5.00;3.20;;;;;;;13.89;100.00;100088.66;7394646;19;20763;-44
2023/07/31 07:43:14;;;;;;;9.53;4.37;;;;;;;13.96;100.00;100089.63;7370471;19;20430;-45
2023/07/31 07:45:43;;;;;;;20.00;8.57;;;;;;;13.95;100.00;100085.31;7393810;19;20407;-46
2023/07/31 07:48:13;;;;;;;8.57;5.40;;;;;;;13.98;100.00;100082.75;7369262;19;20494;-48
2023/07/31 07:50:42;;;;;;;2.73;2.40;;;;;;;14.10;100.00;100074.31;7393118;19;20490;-42
2023/07/31 07:53:12;;;;;;;8.67;3.80;;;;;;;14.08;100.00;100071.69;7367949;19;20986;-42
2023/07/31 07:55:41;;;;;;;2.97;2.50;;;;;;;14.12;100.00;100068.31;7393278;19;20828;-45
2023/07/31 07:58:14;;;;;;;3.83;2.50;;;;;;;14.14;100.00;100071.78;7368301;19;20400;-42
2023/07/31 08:00:44;;;;;;;5.27;2.60;;;;;;;14.22;100.00;100074.53;7392409;19;20399;-43
2023/07/31 08:03:13;;;;;;;2.90;2.60;;;;;;;14.19;100.00;100084.84;7369698;19;20451;-44
2023/07/31 08:05:43;;;;;;;5.57;3.27;;;;;;;14.23;100.00;100075.38;7392929;19;20505;-46
2023/07/31 08:08:16;;;;;;;8.63;5.03;;;;;;;14.25;100.00;100078.88;7368787;19;20447;-45
2023/07/31 08:10:46;;;;;;;2.90;2.30;;;;;;;14.29;100.00;100071.16;7391904;19;20514;-41
2023/07/31 08:13:18;;;;;;;6.20;4.10;;;;;;;14.38;100.00;100080.81;7395873;19;20427;-46
2023/07/31 08:15:48;;;;;;;4.13;2.97;;;;;;;14.48;100.00;100080.94;7395403;19;20418;-44
2023/07/31 08:18:17;;;;;;;6.40;3.70;;;;;;;14.48;100.00;100091.31;7370769;19;20439;-47
2023/07/31 08:20:47;;;;;;;4.30;3.53;;;;;;;14.54;100.00;100092.31;7392771;19;20411;-42
2023/07/31 08:23:17;;;;;;;5.30;3.00;;;;;;;14.54;100.00;100088.81;7371031;19;20526;-43
2023/07/31 08:25:49;;;;;;;4.67;2.93;;;;;;;14.58;100.00;100094.06;7392968;19;20977;-45
2023/07/31 08:28:21;;;;;;;4.57;3.30;;;;;;;14.61;100.00;100085.47;7370578;19;20449;-44
2023/07/31 08:30:51;;;;;;;6.33;4.67;;;;;;;14.56;100.00;100079.34;7378603;19;20537;-45
2023/07/31 08:33:21;;;;;;;3.40;2.60;;;;;;;14.67;100.00;100077.75;7392474;19;20430;-48
2023/07/31 08:35:50;;;;;;;2.53;2.20;;;;;;;14.60;100.00;100075.94;7383379;19;20479;-41
2023/07/31 08:38:20;;;;;;;4.33;3.17;;;;;;;14.61;100.00;100080.28;7390610;19;20816;-45
2023/07/31 08:40:50;;;;;;;3.80;2.97;;;;;;;14.64;100.00;100090.72;7381827;19;20435;-43
2023/07/31 08:43:23;;;;;;;4.83;2.60;;;;;;;14.70;100.00;100093.41;7388704;19;20388;-42
2023/07/31 08:45:52;;;;;;;5.80;3.53;;;;;;;14.74;100.00;100089.16;7366320;19;20417;-45
2023/07/31 08:48:23;;;;;;;7.50;4.30;;;;;;;14.75;100.00;100097.78;7388243;19;20560;-44
2023/07/31 08:50:54;;;;;;;6.37;2.90;;;;;;;14.80;100.00;100099.63;7364316;19;20490;-44
2023/07/31 08:53:24;;;;;;;5.20;3.60;;;;;;;14.83;100.00;100104.00;7386799;19;20966;-43
2023/07/31 08:55:55;;;;;;;4.00;3.37;;;;;;;14.80;100.00;100098.72;7365858;19;20499;-43
2023/07/31 08:58:28;;;;;;;3.27;2.73;;;;;;;14.89;100.00;100088.50;7388000;19;20432;-45
2023/07/31 09:00:58;;;;;;;4.20;3.07;;;;;;;14.93;100.00;100086.81;7361793;19;20415;-44
2023/07/31 09:03:28;;;;;;;4.50;3.30;;;;;;;14.90;100.00;100087.63;7387872;19;20415;-42
2023/07/31 09:05:59;;;;;;;2.97;2.30;;;;;;;14.92;100.00;100085.06;7365619;19;20399;-43
2023/07/31 09:08:31;;;;;;;3.47;2.73;;;;;;;14.88;100.00;100083.25;7388223;19;20982;-43
2023/07/31 09:11:03;;;;;;;2.70;1.97;;;;;;;14.87;100.00;100086.72;7365456;19;20491;-46
2023/07/31 09:13:35;;;;;;;2.00;1.80;;;;;;;14.88;100.00;100091.06;7387411;19;20479;-44
2023/07/31 09:16:05;;;;;;;2.03;1.60;;;;;;;14.88;100.00;100091.94;7366014;19;20752;-45
2023/07/31 09:18:34;;;;;;;3.30;2.10;;;;;;;14.84;100.00;100100.53;7387263;19;20412;-46
2023/07/31 09:21:05;;;;;;;2.03;1.67;;;;;;;14.90;100.00;100092.81;7364407;19;20430;-45
2023/07/31 09:23:44;;;;;;;3.00;2.13;;;;;;;14.90;100.00;100090.22;7386369;19;20474;-43
2023/07/31 09:26:31;;;;;;;2.47;1.73;;;;;;;14.91;100.00;100091.13;7365061;19;20860;-42
2023/07/31 09:29:07;;;;;;;2.30;2.10;;;;;;;14.82;100.00;100084.94;7388116;19;20419;-44
2023/07/31 09:31:44;;;;;;;1.60;1.30;;;;;;;14.75;100.00;100085.69;7364082;19;20839;-46
2023/07/31 09:34:14;;;;;;;3.33;1.40;;;;;;;14.77;100.00;100070.16;7388938;19;21360;-47
2023/07/31 09:36:45;;;;;;;2.60;1.90;;;;;;;14.72;100.00;100060.53;7364210;19;20459;-43
2023/07/31 09:39:16;;;;;;;2.40;1.70;;;;;;;14.67;100.00;100051.78;7391035;19;20411;-45
2023/07/31 09:41:46;;;;;;;2.60;1.60;;;;;;;14.70;100.00;100051.84;7365360;19;20435;-46
2023/07/31 09:44:19;;;;;;;2.50;1.70;;;;;;;14.80;100.00;100058.06;7384970;19;20449;-42
2023/07/31 09:46:49;;;;;;;3.20;1.80;;;;;;;14.85;100.00;100053.81;7363220;19;20534;-42
2023/07/31 09:49:19;;;;;;;2.90;1.90;;;;;;;14.81;100.00;100045.94;7388986;19;20400;-46
2023/07/31 09:51:48;;;;;;;2.33;1.90;;;;;;;14.75;100.00;100038.06;7366188;19;20414;-44
2023/07/31 09:54:19;;;;;;;3.90;1.80;;;;;;;14.87;100.00;100038.22;7388419;19;20395;-43
2023/07/31 09:56:50;;;;;;;2.20;1.27;;;;;;;14.88;100.00;100033.94;7365678;19;20459;-45
2023/07/31 09:59:23;;;;;;;20.73;9.53;;;;;;;14.87;100.00;100042.56;7388554;19;20428;-44
2023/07/31 10:01:53;;;;;;;9.17;5.57;;;;;;;14.91;100.00;100042.63;7365901;19;20437;-45
2023/07/31 10:04:25;;;;;;;29.03;13.80;;;;;;;14.89;100.00;100049.53;7398147;19;20781;-43
2023/07/31 10:06:56;;;;;;;22.13;9.10;;;;;;;14.94;100.00;100053.06;7371410;19;20566;-45
2023/07/31 10:09:29;;;;;;;15.00;7.80;;;;;;;14.95;100.00;100061.72;7395108;19;20399;-44
2023/07/31 10:12:03;;;;;;;5.10;3.70;;;;;;;15.00;100.00;100052.25;7371565;19;21029;-45
2023/07/31 10:14:35;;;;;;;3.93;2.73;;;;;;;14.85;100.00;100045.16;7395669;19;20424;-50
2023/07/31 10:17:05;;;;;;;8.70;4.87;;;;;;;14.83;100.00;100031.28;7371443;19;20455;-45
2023/07/31 10:19:35;;;;;;;88.53;40.80;;;;;;;14.95;100.00;100031.44;7393827;19;20494;-44
2023/07/31 10:22:06;;;;;;;31.80;17.33;;;;;;;15.00;100.00;100026.28;7372250;19;20436;-48
2023/07/31 10:24:36;;;;;;;7.03;3.70;;;;;;;15.07;100.00;100035.03;7395830;19;20415;-47
2023/07/31 10:27:06;;;;;;;2.73;1.60;;;;;;;15.04;100.00;100033.28;7371724;19;20462;-47
2023/07/31 10:29:39;;;;;;;4.03;2.90;;;;;;;14.95;100.00;100033.16;7395577;19;20403;-48
2023/07/31 10:32:11;;;;;;;2.60;1.90;;;;;;;14.97;100.00;100016.72;7372452;19;20419;-47
2023/07/31 10:34:42;;;;;;;4.33;2.93;;;;;;;15.08;100.00;100010.78;7398333;19;20418;-48
2023/07/31 10:37:26;;;;;;;2.80;1.60;;;;;;;15.04;100.00;100003.81;7372436;19;20519;-46
2023/07/31 10:40:00;;;;;;;2.03;1.33;;;;;;;15.06;100.00;100002.97;7398201;19;20414;-43
2023/07/31 10:42:31;;;;;;;3.47;2.20;;;;;;;15.13;100.00;100003.94;7371352;19;20422;-49
2023/07/31 10:45:06;;;;;;;1.90;1.40;;;;;;;15.06;100.00;100002.97;7395695;19;20488;-45
2023/07/31 10:47:40;;;;;;;5.93;3.47;;;;;;;15.05;100.00;99998.66;7369661;19;20558;-45
2023/07/31 10:50:20;;;;;;;13.50;7.73;;;;;;;15.01;100.00;99988.22;7396253;19;20424;-44
2023/07/31 10:52:50;;;;;;;3.83;2.07;;;;;;;15.02;100.00;99989.94;7369378;19;20427;-46
2023/07/31 10:55:34;;;;;;;3.60;2.27;;;;;;;15.17;100.00;99990.09;7393784;19;20419;-48
2023/07/31 10:58:11;;;;;;;13.67;7.80;;;;;;;15.09;100.00;99992.59;7366979;19;20471;-46
2023/07/31 11:00:45;;;;;;;2.67;1.70;;;;;;;15.08;100.00;100003.00;7394976;19;20399;-45
2023/07/31 11:03:16;;;;;;;3.10;2.00;;;;;;;15.13;100.00;99998.75;7367985;19;20992;-45
2023/07/31 11:05:48;;;;;;;6.40;3.50;;;;;;;15.12;100.00;100002.16;7394966;19;20396;-45
2023/07/31 11:08:20;;;;;;;7.90;4.30;;;;;;;14.97;100.00;100003.75;7372853;19;20459;-44
2023/07/31 11:10:51;;;;;;;1.83;1.00;;;;;;;14.84;100.00;99991.47;7394147;19;20416;-43
2023/07/31 11:13:21;;;;;;;27.17;15.67;;;;;;;14.93;100.00;99988.13;7371309;19;20455;-44
2023/07/31 11:15:53;;;;;;;8.37;5.47;;;;;;;14.96;100.00;99994.22;7394707;19;20411;-41
2023/07/31 11:18:23;;;;;;;1.63;1.03;;;;;;;14.97;100.00;99985.56;7372889;19;20959;-42
2023/07/31 11:20:52;;;;;;;14.37;7.43;;;;;;;15.10;100.00;99996.97;7373378;19;20415;-45
2023/07/31 11:23:23;;;;;;;8.63;3.03;;;;;;;15.08;100.00;100001.25;7394048;19;20416;-42
2023/07/31 11:25:53;;;;;;;2.63;0.80;;;;;;;15.08;100.00;99993.47;7369750;19;20407;-42
2023/07/31 11:28:23;;;;;;;3.63;1.07;;;;;;;14.99;100.00;99995.97;7391985;19;20410;-46
2023/07/31 11:30:55;;;;;;;2.63;0.70;;;;;;;15.01;100.00;99994.25;7372381;19;20411;-44
2023/07/31 11:33:24;;;;;;;2.37;0.70;;;;;;;14.92;100.00;99987.22;7393420;19;20810;-43